Accueil
METAR-TAF:

METAR-TAF

Aéroports :

Aéroport de Reus

Reus, Espagne

latitude: 41-09N, longitude: 001-10E, altitude: 71 m

Observation

Le bulletin a été fait il y a 31 minutes, à 15:00 UTC
Vent 8 kt de nord-ouest, variant entre ouest et nord
Température 13°C
Humidité 41%
Pression 1016 hPa
Visibilité 10 km ou plus
Quelques nuages à une hauteur de 4500 ft

METAR: LERS 211500Z 31008KT 260V010 9999 FEW045 13/00 Q1016

Heure: 16:31 (15:31 UTC)

Prévision

Le bulletin a été fait il y a 1 heure et 31 minutes, à 14:00 UTC
Prévision valable du 21 à 15 UTC au 22 à 15 UTC
Vent 7 kt de ouest
Visibilité 10 km ou plus
Quelques nuages à une hauteur de 3000 ft
Temporairement
du 21 à 15 UTC au 22 à 15 UTC
Vent 14 kt de ouest avec des rafales jusqu'à 24 kt

TAF: LERS 211400Z 2115/2215 28007KT 9999 FEW030 TX12/2213Z TN00/2206Z TEMPO 2115/2215 28014G24KT

Observations et prévisions météorologiques de plus de 4000 aéroports (messages METAR et TAF).

Les stations disponibles sont représentées par des disques jaunes et rouges sur la carte.

Passer la souris dessus pour voir le nom de la station.

Cliquer dessus pour voir les observations et prévisions météorologiques.

Pour changer de carte: cliquez sur les boutons verts avec une croix noire pour zoomer, sur le bouton vert avec un tiret pour effectuer un zoom arrière, ou sur les flèches vertes pour les cartes adjacentes.


METAR-TAF: